sensor_id;sensor_type;location;lat;lon;timestamp;pressure;altitude;pressure_sealevel;temperature;humidity
55604;BME280;41468;48.838;9.330;2023-08-31T00:01:02;97758.31;;;15.00;100.00
55604;BME280;41468;48.838;9.330;2023-08-31T00:03:31;97773.28;;;14.95;100.00
55604;BME280;41468;48.838;9.330;2023-08-31T00:06:01;97775.31;;;14.91;100.00
55604;BME280;41468;48.838;9.330;2023-08-31T00:08:29;97780.44;;;14.89;100.00
55604;BME280;41468;48.838;9.330;2023-08-31T00:11:00;97788.72;;;14.86;100.00
55604;BME280;41468;48.838;9.330;2023-08-31T00:13:27;97789.84;;;14.88;100.00
55604;BME280;41468;48.838;9.330;2023-08-31T00:15:56;97793.72;;;14.94;100.00
55604;BME280;41468;48.838;9.330;2023-08-31T00:18:26;97788.28;;;14.87;100.00
55604;BME280;41468;48.838;9.330;2023-08-31T00:20:53;97781.25;;;14.86;100.00
55604;BME280;41468;48.838;9.330;2023-08-31T00:23:20;97775.81;;;14.79;100.00
55604;BME280;41468;48.838;9.330;2023-08-31T00:25:47;97773.50;;;14.74;100.00
55604;BME280;41468;48.838;9.330;2023-08-31T00:28:19;97777.41;;;14.76;100.00
55604;BME280;41468;48.838;9.330;2023-08-31T00:30:46;97784.88;;;14.76;100.00
55604;BME280;41468;48.838;9.330;2023-08-31T00:33:16;97786.09;;;14.75;100.00
55604;BME280;41468;48.838;9.330;2023-08-31T00:35:43;97789.63;;;14.72;100.00
55604;BME280;41468;48.838;9.330;2023-08-31T00:38:13;97798.69;;;14.69;100.00
55604;BME280;41468;48.838;9.330;2023-08-31T00:40:42;97802.25;;;14.66;100.00
55604;BME280;41468;48.838;9.330;2023-08-31T00:43:12;97805.44;;;14.61;100.00
55604;BME280;41468;48.838;9.330;2023-08-31T00:45:43;97803.09;;;14.59;100.00
55604;BME280;41468;48.838;9.330;2023-08-31T00:48:11;97808.19;;;14.61;100.00
55604;BME280;41468;48.838;9.330;2023-08-31T00:50:38;97812.13;;;14.56;100.00
55604;BME280;41468;48.838;9.330;2023-08-31T00:53:05;97816.09;;;14.55;100.00
55604;BME280;41468;48.838;9.330;2023-08-31T00:55:39;97809.38;;;14.56;100.00
55604;BME280;41468;48.838;9.330;2023-08-31T00:58:09;97811.41;;;14.48;100.00
55604;BME280;41468;48.838;9.330;2023-08-31T01:00:45;97816.91;;;14.45;100.00
55604;BME280;41468;48.838;9.330;2023-08-31T01:06:27;97808.25;;;14.50;100.00
55604;BME280;41468;48.838;9.330;2023-08-31T01:09:13;97810.59;;;14.51;100.00
55604;BME280;41468;48.838;9.330;2023-08-31T01:12:11;97801.19;;;14.49;100.00
55604;BME280;41468;48.838;9.330;2023-08-31T01:14:45;97794.59;;;14.43;100.00
55604;BME280;41468;48.838;9.330;2023-08-31T01:17:14;97794.53;;;14.53;100.00
55604;BME280;41468;48.838;9.330;2023-08-31T01:22:21;97789.53;;;14.38;100.00
55604;BME280;41468;48.838;9.330;2023-08-31T01:24:51;97792.78;;;14.22;100.00
55604;BME280;41468;48.838;9.330;2023-08-31T01:27:18;97796.72;;;14.21;100.00
55604;BME280;41468;48.838;9.330;2023-08-31T01:29:45;97799.03;;;14.26;100.00
55604;BME280;41468;48.838;9.330;2023-08-31T01:32:12;97803.78;;;14.22;100.00
55604;BME280;41468;48.838;9.330;2023-08-31T01:34:39;97804.56;;;14.22;100.00
55604;BME280;41468;48.838;9.330;2023-08-31T01:37:12;97813.25;;;14.13;100.00
55604;BME280;41468;48.838;9.330;2023-08-31T01:39:46;97815.22;;;14.09;100.00
55604;BME280;41468;48.838;9.330;2023-08-31T01:42:16;97816.78;;;14.14;100.00
55604;BME280;41468;48.838;9.330;2023-08-31T01:44:45;97821.53;;;14.06;100.00
55604;BME280;41468;48.838;9.330;2023-08-31T01:47:15;97825.13;;;14.00;100.00
55604;BME280;41468;48.838;9.330;2023-08-31T01:49:43;97834.13;;;14.00;100.00
55604;BME280;41468;48.838;9.330;2023-08-31T01:52:10;97835.28;;;14.03;100.00
55604;BME280;41468;48.838;9.330;2023-08-31T01:54:37;97833.69;;;14.05;100.00
55604;BME280;41468;48.838;9.330;2023-08-31T01:57:04;97836.88;;;14.00;100.00
55604;BME280;41468;48.838;9.330;2023-08-31T01:59:33;97830.56;;;14.03;100.00
55604;BME280;41468;48.838;9.330;2023-08-31T02:02:01;97835.69;;;14.01;100.00
55604;BME280;41468;48.838;9.330;2023-08-31T02:04:28;97837.19;;;14.09;100.00
55604;BME280;41468;48.838;9.330;2023-08-31T02:06:54;97842.28;;;14.11;100.00
55604;BME280;41468;48.838;9.330;2023-08-31T02:09:32;97836.38;;;14.16;100.00
55604;BME280;41468;48.838;9.330;2023-08-31T02:11:58;97833.22;;;14.21;100.00
55604;BME280;41468;48.838;9.330;2023-08-31T02:14:31;97828.88;;;14.20;100.00
55604;BME280;41468;48.838;9.330;2023-08-31T02:16:58;97829.72;;;14.10;100.00
55604;BME280;41468;48.838;9.330;2023-08-31T02:19:25;97823.44;;;14.17;100.00
55604;BME280;41468;48.838;9.330;2023-08-31T02:21:52;97828.13;;;14.16;100.00
55604;BME280;41468;48.838;9.330;2023-08-31T02:24:19;97826.56;;;14.19;100.00
55604;BME280;41468;48.838;9.330;2023-08-31T02:26:48;97834.41;;;14.17;100.00
55604;BME280;41468;48.838;9.330;2023-08-31T02:29:14;97843.03;;;14.15;100.00
55604;BME280;41468;48.838;9.330;2023-08-31T02:31:41;97844.66;;;14.09;100.00
55604;BME280;41468;48.838;9.330;2023-08-31T02:34:08;97841.88;;;14.12;100.00
55604;BME280;41468;48.838;9.330;2023-08-31T02:36:35;97844.25;;;14.10;100.00
55604;BME280;41468;48.838;9.330;2023-08-31T02:39:02;97850.13;;;14.09;100.00
55604;BME280;41468;48.838;9.330;2023-08-31T02:41:30;97844.66;;;14.09;100.00
55604;BME280;41468;48.838;9.330;2023-08-31T02:43:57;97842.72;;;14.02;100.00
55604;BME280;41468;48.838;9.330;2023-08-31T02:46:24;97843.50;;;14.06;100.00
55604;BME280;41468;48.838;9.330;2023-08-31T02:48:51;97853.69;;;14.02;100.00
55604;BME280;41468;48.838;9.330;2023-08-31T02:51:17;97847.78;;;14.07;100.00
55604;BME280;41468;48.838;9.330;2023-08-31T02:53:44;97857.59;;;14.05;100.00
55604;BME280;41468;48.838;9.330;2023-08-31T02:56:11;97852.16;;;14.01;100.00
55604;BME280;41468;48.838;9.330;2023-08-31T02:58:38;97858.81;;;14.04;100.00
55604;BME280;41468;48.838;9.330;2023-08-31T03:01:10;97854.84;;;14.05;100.00
55604;BME280;41468;48.838;9.330;2023-08-31T03:03:41;97850.88;;;14.13;100.00
55604;BME280;41468;48.838;9.330;2023-08-31T03:06:09;97863.47;;;14.10;100.00
55604;BME280;41468;48.838;9.330;2023-08-31T03:08:37;97854.78;;;14.15;100.00
55604;BME280;41468;48.838;9.330;2023-08-31T03:11:04;97856.38;;;14.17;100.00
55604;BME280;41468;48.838;9.330;2023-08-31T03:13:32;97850.84;;;14.20;100.00
55604;BME280;41468;48.838;9.330;2023-08-31T03:16:00;97853.19;;;14.22;100.00
55604;BME280;41468;48.838;9.330;2023-08-31T03:18:27;97868.47;;;14.23;100.00
55604;BME280;41468;48.838;9.330;2023-08-31T03:20:55;97857.91;;;14.18;100.00
55604;BME280;41468;48.838;9.330;2023-08-31T03:23:22;97854.44;;;14.13;100.00
55604;BME280;41468;48.838;9.330;2023-08-31T03:25:49;97851.75;;;14.03;100.00
55604;BME280;41468;48.838;9.330;2023-08-31T03:28:15;97863.94;;;13.98;100.00
55604;BME280;41468;48.838;9.330;2023-08-31T03:30:42;97871.00;;;13.96;100.00
55604;BME280;41468;48.838;9.330;2023-08-31T03:33:11;97870.19;;;13.99;100.00
55604;BME280;41468;48.838;9.330;2023-08-31T03:35:41;97875.22;;;14.07;100.00
55604;BME280;41468;48.838;9.330;2023-08-31T03:38:08;97871.34;;;14.01;100.00
55604;BME280;41468;48.838;9.330;2023-08-31T03:40:35;97876.06;;;14.01;100.00
55604;BME280;41468;48.838;9.330;2023-08-31T03:43:02;97874.94;;;13.95;100.00
55604;BME280;41468;48.838;9.330;2023-08-31T03:45:30;97880.44;;;13.91;100.00
55604;BME280;41468;48.838;9.330;2023-08-31T03:47:56;97876.53;;;13.88;100.00
55604;BME280;41468;48.838;9.330;2023-08-31T03:50:24;97874.56;;;13.85;100.00
55604;BME280;41468;48.838;9.330;2023-08-31T03:52:51;97872.19;;;13.91;100.00
55604;BME280;41468;48.838;9.330;2023-08-31T03:55:18;97877.69;;;13.91;100.00
55604;BME280;41468;48.838;9.330;2023-08-31T03:57:45;97881.66;;;13.86;100.00
55604;BME280;41468;48.838;9.330;2023-08-31T04:00:14;97898.50;;;13.85;100.00
55604;BME280;41468;48.838;9.330;2023-08-31T04:02:42;97894.16;;;13.91;100.00
55604;BME280;41468;48.838;9.330;2023-08-31T04:05:10;97889.03;;;13.97;100.00
55604;BME280;41468;48.838;9.330;2023-08-31T04:07:36;97886.69;;;13.95;100.00
55604;BME280;41468;48.838;9.330;2023-08-31T04:10:03;97891.78;;;13.93;100.00
55604;BME280;41468;48.838;9.330;2023-08-31T04:12:30;97892.94;;;13.99;100.00
55604;BME280;41468;48.838;9.330;2023-08-31T04:14:57;97897.25;;;14.00;100.00
55604;BME280;41468;48.838;9.330;2023-08-31T04:17:24;97899.22;;;13.96;100.00
55604;BME280;41468;48.838;9.330;2023-08-31T04:19:51;97899.28;;;13.89;100.00
55604;BME280;41468;48.838;9.330;2023-08-31T04:22:18;97901.25;;;13.85;100.00
55604;BME280;41468;48.838;9.330;2023-08-31T04:24:49;97907.88;;;13.91;100.00
55604;BME280;41468;48.838;9.330;2023-08-31T04:27:16;97897.31;;;13.86;100.00
55604;BME280;41468;48.838;9.330;2023-08-31T04:29:42;97897.72;;;13.81;100.00
55604;BME280;41468;48.838;9.330;2023-08-31T04:32:09;97899.69;;;13.84;100.00
55604;BME280;41468;48.838;9.330;2023-08-31T04:34:36;97902.06;;;13.75;100.00
55604;BME280;41468;48.838;9.330;2023-08-31T04:37:03;97903.66;;;13.68;100.00
55604;BME280;41468;48.838;9.330;2023-08-31T04:39:30;97915.78;;;13.75;100.00
55604;BME280;41468;48.838;9.330;2023-08-31T04:41:56;97922.47;;;13.74;100.00
55604;BME280;41468;48.838;9.330;2023-08-31T04:44:25;97918.19;;;13.62;100.00
55604;BME280;41468;48.838;9.330;2023-08-31T04:46:52;97928.81;;;13.49;100.00
55604;BME280;41468;48.838;9.330;2023-08-31T04:49:19;97927.28;;;13.41;100.00
55604;BME280;41468;48.838;9.330;2023-08-31T04:51:46;97920.59;;;13.35;100.00
55604;BME280;41468;48.838;9.330;2023-08-31T04:54:12;97923.38;;;13.28;100.00
55604;BME280;41468;48.838;9.330;2023-08-31T04:56:40;97921.03;;;13.33;100.00
55604;BME280;41468;48.838;9.330;2023-08-31T04:59:07;97931.19;;;13.36;100.00
55604;BME280;41468;48.838;9.330;2023-08-31T05:01:34;97932.38;;;13.39;100.00
55604;BME280;41468;48.838;9.330;2023-08-31T05:04:02;97939.41;;;13.40;100.00
55604;BME280;41468;48.838;9.330;2023-08-31T05:06:29;97936.28;;;13.34;100.00
55604;BME280;41468;48.838;9.330;2023-08-31T05:08:56;97931.22;;;13.33;100.00
55604;BME280;41468;48.838;9.330;2023-08-31T05:11:23;97946.06;;;13.39;100.00
55604;BME280;41468;48.838;9.330;2023-08-31T05:13:50;97948.78;;;13.50;100.00
55604;BME280;41468;48.838;9.330;2023-08-31T05:16:17;97939.75;;;13.63;100.00
55604;BME280;41468;48.838;9.330;2023-08-31T05:18:44;97943.28;;;13.67;100.00
55604;BME280;41468;48.838;9.330;2023-08-31T05:21:10;97946.41;;;13.62;100.00
55604;BME280;41468;48.838;9.330;2023-08-31T05:23:37;97947.56;;;13.76;100.00
55604;BME280;41468;48.838;9.330;2023-08-31T05:26:04;97948.31;;;13.73;100.00
55604;BME280;41468;48.838;9.330;2023-08-31T05:28:31;97956.16;;;13.74;100.00
55604;BME280;41468;48.838;9.330;2023-08-31T05:31:01;97965.59;;;13.66;100.00
55604;BME280;41468;48.838;9.330;2023-08-31T05:33:28;97968.69;;;13.79;100.00
55604;BME280;41468;48.838;9.330;2023-08-31T05:36:01;97969.50;;;13.76;100.00
55604;BME280;41468;48.838;9.330;2023-08-31T05:38:30;97969.88;;;13.78;100.00
55604;BME280;41468;48.838;9.330;2023-08-31T05:41:07;97973.75;;;13.87;100.00
55604;BME280;41468;48.838;9.330;2023-08-31T05:43:35;97980.41;;;13.90;100.00
55604;BME280;41468;48.838;9.330;2023-08-31T05:46:02;97976.06;;;13.96;100.00
55604;BME280;41468;48.838;9.330;2023-08-31T05:48:29;97983.13;;;13.93;100.00
55604;BME280;41468;48.838;9.330;2023-08-31T05:50:56;97978.03;;;13.96;100.00
55604;BME280;41468;48.838;9.330;2023-08-31T05:53:23;97977.59;;;14.04;100.00
55604;BME280;41468;48.838;9.330;2023-08-31T05:55:50;97983.09;;;14.04;100.00
55604;BME280;41468;48.838;9.330;2023-08-31T05:58:17;97987.44;;;13.98;100.00
55604;BME280;41468;48.838;9.330;2023-08-31T06:00:44;97997.63;;;14.01;100.00
55604;BME280;41468;48.838;9.330;2023-08-31T06:03:11;97985.78;;;14.22;100.00
55604;BME280;41468;48.838;9.330;2023-08-31T06:05:38;97990.09;;;14.20;100.00
55604;BME280;41468;48.838;9.330;2023-08-31T06:08:05;97985.00;;;14.22;100.00
55604;BME280;41468;48.838;9.330;2023-08-31T06:10:32;97990.13;;;14.12;100.00
55604;BME280;41468;48.838;9.330;2023-08-31T06:12:59;97997.16;;;14.17;100.00
55604;BME280;41468;48.838;9.330;2023-08-31T06:15:26;98002.69;;;14.13;100.00
55604;BME280;41468;48.838;9.330;2023-08-31T06:18:03;98001.44;;;14.25;100.00
55604;BME280;41468;48.838;9.330;2023-08-31T06:20:30;98003.44;;;14.21;100.00
55604;BME280;41468;48.838;9.330;2023-08-31T06:22:59;98010.88;;;14.24;100.00
55604;BME280;41468;48.838;9.330;2023-08-31T06:25:26;98004.53;;;14.34;100.00
55604;BME280;41468;48.838;9.330;2023-08-31T06:27:53;98014.75;;;14.34;100.00
55604;BME280;41468;48.838;9.330;2023-08-31T06:30:19;98014.38;;;14.32;100.00
55604;BME280;41468;48.838;9.330;2023-08-31T06:32:47;98013.94;;;14.41;100.00
55604;BME280;41468;48.838;9.330;2023-08-31T06:35:14;98027.59;;;14.62;100.00
55604;BME280;41468;48.838;9.330;2023-08-31T06:37:45;98027.16;;;14.64;100.00
55604;BME280;41468;48.838;9.330;2023-08-31T06:40:12;98027.22;;;14.56;100.00
55604;BME280;41468;48.838;9.330;2023-08-31T06:42:39;98025.63;;;14.63;100.00
55604;BME280;41468;48.838;9.330;2023-08-31T06:45:07;98025.66;;;14.59;100.00
55604;BME280;41468;48.838;9.330;2023-08-31T06:47:34;98032.59;;;14.74;100.00
55604;BME280;41468;48.838;9.330;2023-08-31T06:50:01;98025.59;;;14.66;100.00
55604;BME280;41468;48.838;9.330;2023-08-31T06:52:30;98034.59;;;14.67;100.00
55604;BME280;41468;48.838;9.330;2023-08-31T06:54:58;98038.94;;;14.68;100.00
55604;BME280;41468;48.838;9.330;2023-08-31T06:57:26;98043.56;;;14.82;100.00
55604;BME280;41468;48.838;9.330;2023-08-31T06:59:53;98037.22;;;14.88;100.00
55604;BME280;41468;48.838;9.330;2023-08-31T07:02:21;98047.38;;;14.98;100.00
55604;BME280;41468;48.838;9.330;2023-08-31T07:04:51;98044.13;;;15.14;100.00
55604;BME280;41468;48.838;9.330;2023-08-31T07:07:19;98035.31;;;15.34;100.00
55604;BME280;41468;48.838;9.330;2023-08-31T07:09:47;98047.34;;;15.54;100.00
55604;BME280;41468;48.838;9.330;2023-08-31T07:12:15;98047.63;;;15.63;98.99
55604;BME280;41468;48.838;9.330;2023-08-31T07:14:42;98044.81;;;15.74;96.63
55604;BME280;41468;48.838;9.330;2023-08-31T07:17:18;98050.56;;;15.90;95.82
55604;BME280;41468;48.838;9.330;2023-08-31T07:19:46;98052.06;;;15.95;96.85
55604;BME280;41468;48.838;9.330;2023-08-31T07:22:13;98060.81;;;15.86;94.64
55604;BME280;41468;48.838;9.330;2023-08-31T07:24:40;98059.59;;;15.91;97.85
55604;BME280;41468;48.838;9.330;2023-08-31T07:27:07;98061.19;;;15.88;92.04
55604;BME280;41468;48.838;9.330;2023-08-31T07:29:33;98060.78;;;15.90;93.59
55604;BME280;41468;48.838;9.330;2023-08-31T07:32:00;98064.66;;;15.96;94.76
55604;BME280;41468;48.838;9.330;2023-08-31T07:34:27;98067.00;;;15.98;96.74
55604;BME280;41468;48.838;9.330;2023-08-31T07:36:54;98066.53;;;16.03;96.29
55604;BME280;41468;48.838;9.330;2023-08-31T07:39:21;98084.72;;;15.97;98.16
55604;BME280;41468;48.838;9.330;2023-08-31T07:41:47;98082.78;;;15.94;96.93
55604;BME280;41468;48.838;9.330;2023-08-31T07:44:16;98086.78;;;15.85;92.94
55604;BME280;41468;48.838;9.330;2023-08-31T07:46:43;98089.91;;;15.87;94.97
55604;BME280;41468;48.838;9.330;2023-08-31T07:49:10;98088.09;;;16.11;96.44
55604;BME280;41468;48.838;9.330;2023-08-31T07:51:37;98086.09;;;16.50;91.34
55604;BME280;41468;48.838;9.330;2023-08-31T07:54:04;98080.50;;;16.88;90.76
55604;BME280;41468;48.838;9.330;2023-08-31T07:56:31;98090.94;;;17.27;87.81
55604;BME280;41468;48.838;9.330;2023-08-31T07:58:57;98076.50;;;17.43;83.07
55604;BME280;41468;48.838;9.330;2023-08-31T08:01:25;98088.22;;;17.51;83.13
55604;BME280;41468;48.838;9.330;2023-08-31T08:03:52;98076.53;;;17.90;80.73
55604;BME280;41468;48.838;9.330;2023-08-31T08:06:19;98081.22;;;18.13;77.90
55604;BME280;41468;48.838;9.330;2023-08-31T08:08:45;98091.88;;;18.35;79.19
55604;BME280;41468;48.838;9.330;2023-08-31T08:11:12;98085.56;;;18.34;77.26
55604;BME280;41468;48.838;9.330;2023-08-31T08:13:39;98073.88;;;18.46;79.33
55604;BME280;41468;48.838;9.330;2023-08-31T08:16:06;98077.97;;;18.58;76.54
55604;BME280;41468;48.838;9.330;2023-08-31T08:18:33;98074.03;;;18.39;68.76
55604;BME280;41468;48.838;9.330;2023-08-31T08:21:00;98074.03;;;18.59;65.61
55604;BME280;41468;48.838;9.330;2023-08-31T08:23:26;98081.44;;;18.82;67.04
55604;BME280;41468;48.838;9.330;2023-08-31T08:25:53;98075.09;;;19.02;61.97
55604;BME280;41468;48.838;9.330;2023-08-31T08:28:20;98064.22;;;19.11;61.80
55604;BME280;41468;48.838;9.330;2023-08-31T08:30:47;98075.28;;;19.11;60.58
55604;BME280;41468;48.838;9.330;2023-08-31T08:33:14;98079.94;;;18.97;66.71
55604;BME280;41468;48.838;9.330;2023-08-31T08:35:41;98076.19;;;18.48;58.09
55604;BME280;41468;48.838;9.330;2023-08-31T08:38:08;98092.06;;;18.04;60.67
55604;BME280;41468;48.838;9.330;2023-08-31T08:40:35;98092.69;;;17.68;66.08
55604;BME280;41468;48.838;9.330;2023-08-31T08:43:06;98094.66;;;17.44;68.38
55604;BME280;41468;48.838;9.330;2023-08-31T08:45:37;98103.81;;;17.10;67.21
55604;BME280;41468;48.838;9.330;2023-08-31T08:48:08;98112.69;;;16.98;67.88
55604;BME280;41468;48.838;9.330;2023-08-31T08:50:36;98110.25;;;17.00;71.35
55604;BME280;41468;48.838;9.330;2023-08-31T08:53:04;98119.06;;;16.91;72.59
55604;BME280;41468;48.838;9.330;2023-08-31T08:55:33;98111.53;;;16.95;74.31
55604;BME280;41468;48.838;9.330;2023-08-31T08:58:00;98111.19;;;16.90;73.16
55604;BME280;41468;48.838;9.330;2023-08-31T09:00:26;98108.41;;;17.20;73.51
55604;BME280;41468;48.838;9.330;2023-08-31T09:02:55;98117.47;;;17.72;73.49
55604;BME280;41468;48.838;9.330;2023-08-31T09:05:23;98118.19;;;17.99;74.85
55604;BME280;41468;48.838;9.330;2023-08-31T09:08:03;98114.34;;;18.17;72.64
55604;BME280;41468;48.838;9.330;2023-08-31T09:10:36;98125.41;;;18.37;72.09
55604;BME280;41468;48.838;9.330;2023-08-31T09:13:10;98118.13;;;18.46;70.33
55604;BME280;41468;48.838;9.330;2023-08-31T09:15:45;98126.91;;;18.41;69.54
55604;BME280;41468;48.838;9.330;2023-08-31T09:18:28;98124.66;;;18.13;69.67
55604;BME280;41468;48.838;9.330;2023-08-31T09:20:56;98132.97;;;17.89;71.47
55604;BME280;41468;48.838;9.330;2023-08-31T09:23:24;98132.34;;;17.78;71.83
55604;BME280;41468;48.838;9.330;2023-08-31T09:25:53;98135.56;;;17.73;70.81
55604;BME280;41468;48.838;9.330;2023-08-31T09:28:26;98130.91;;;17.70;72.22
55604;BME280;41468;48.838;9.330;2023-08-31T09:31:04;98134.50;;;17.66;75.85
55604;BME280;41468;48.838;9.330;2023-08-31T09:33:34;98137.38;;;17.59;74.21
55604;BME280;41468;48.838;9.330;2023-08-31T09:36:01;98137.69;;;17.38;72.50
55604;BME280;41468;48.838;9.330;2023-08-31T09:38:30;98135.06;;;17.31;73.62
55604;BME280;41468;48.838;9.330;2023-08-31T09:41:06;98141.03;;;17.26;74.67
55604;BME280;41468;48.838;9.330;2023-08-31T09:43:44;98133.22;;;17.20;71.80
55604;BME280;41468;48.838;9.330;2023-08-31T09:46:11;98134.06;;;17.17;71.98
55604;BME280;41468;48.838;9.330;2023-08-31T09:48:41;98137.19;;;17.70;71.65
55604;BME280;41468;48.838;9.330;2023-08-31T09:51:10;98132.00;;;17.99;65.90
55604;BME280;41468;48.838;9.330;2023-08-31T09:53:37;98129.13;;;17.83;65.26
55604;BME280;41468;48.838;9.330;2023-08-31T09:56:05;98137.31;;;17.90;66.27
55604;BME280;41468;48.838;9.330;2023-08-31T09:58:33;98139.00;;;18.47;62.88
55604;BME280;41468;48.838;9.330;2023-08-31T10:01:00;98142.06;;;19.13;59.65
55604;BME280;41468;48.838;9.330;2023-08-31T10:03:31;98135.78;;;19.61;58.20
55604;BME280;41468;48.838;9.330;2023-08-31T10:05:58;98136.41;;;20.02;58.38
55604;BME280;41468;48.838;9.330;2023-08-31T10:08:30;98142.75;;;20.32;55.36
55604;BME280;41468;48.838;9.330;2023-08-31T10:11:01;98136.16;;;20.42;52.55
55604;BME280;41468;48.838;9.330;2023-08-31T10:13:32;98130.13;;;20.60;49.15
55604;BME280;41468;48.838;9.330;2023-08-31T10:16:04;98125.31;;;21.02;52.08
55604;BME280;41468;48.838;9.330;2023-08-31T10:18:34;98141.78;;;20.67;51.68
55604;BME280;41468;48.838;9.330;2023-08-31T10:21:02;98136.13;;;20.71;51.04
55604;BME280;41468;48.838;9.330;2023-08-31T10:23:31;98139.72;;;20.71;49.87
55604;BME280;41468;48.838;9.330;2023-08-31T10:28:27;98137.69;;;19.97;54.43
55604;BME280;41468;48.838;9.330;2023-08-31T10:31:04;98145.94;;;19.84;52.75
55604;BME280;41468;48.838;9.330;2023-08-31T10:33:39;98132.78;;;19.89;52.11
55604;BME280;41468;48.838;9.330;2023-08-31T10:36:19;98136.81;;;19.51;52.01
55604;BME280;41468;48.838;9.330;2023-08-31T10:39:00;98134.28;;;19.24;51.79
55604;BME280;41468;48.838;9.330;2023-08-31T10:41:34;98139.75;;;18.91;54.74
55604;BME280;41468;48.838;9.330;2023-08-31T10:44:24;98140.16;;;18.70;56.91
55604;BME280;41468;48.838;9.330;2023-08-31T10:46:52;98154.13;;;18.63;54.18
55604;BME280;41468;48.838;9.330;2023-08-31T10:49:21;98150.50;;;18.66;54.48
55604;BME280;41468;48.838;9.330;2023-08-31T10:51:49;98149.66;;;18.69;53.39
55604;BME280;41468;48.838;9.330;2023-08-31T10:54:30;98140.03;;;18.77;54.74
55604;BME280;41468;48.838;9.330;2023-08-31T10:59:25;98142.09;;;19.29;53.13
55604;BME280;41468;48.838;9.330;2023-08-31T11:01:59;98142.63;;;19.40;52.38
55604;BME280;41468;48.838;9.330;2023-08-31T11:04:28;98131.16;;;19.22;53.23
55604;BME280;41468;48.838;9.330;2023-08-31T11:07:17;98145.00;;;19.22;54.33
55604;BME280;41468;48.838;9.330;2023-08-31T11:09:46;98146.25;;;19.37;52.59
55604;BME280;41468;48.838;9.330;2023-08-31T11:12:13;98140.50;;;19.28;52.68
55604;BME280;41468;48.838;9.330;2023-08-31T11:14:40;98137.69;;;19.32;53.22
55604;BME280;41468;48.838;9.330;2023-08-31T11:17:07;98145.81;;;19.39;54.50
55604;BME280;41468;48.838;9.330;2023-08-31T11:19:35;98142.00;;;19.33;54.81
55604;BME280;41468;48.838;9.330;2023-08-31T11:22:03;98150.56;;;19.38;52.68
55604;BME280;41468;48.838;9.330;2023-08-31T11:24:31;98145.91;;;19.35;54.57
55604;BME280;41468;48.838;9.330;2023-08-31T11:26:59;98146.25;;;19.37;55.66
55604;BME280;41468;48.838;9.330;2023-08-31T11:29:26;98142.34;;;19.35;53.66
55604;BME280;41468;48.838;9.330;2023-08-31T11:31:56;98140.53;;;19.45;52.80
55604;BME280;41468;48.838;9.330;2023-08-31T11:34:24;98134.69;;;19.75;54.46
55604;BME280;41468;48.838;9.330;2023-08-31T11:36:51;98132.97;;;19.81;54.12
55604;BME280;41468;48.838;9.330;2023-08-31T11:39:19;98134.69;;;19.75;52.50
55604;BME280;41468;48.838;9.330;2023-08-31T11:41:46;98130.09;;;19.69;55.01
55604;BME280;41468;48.838;9.330;2023-08-31T11:44:14;98134.56;;;19.62;54.38
55604;BME280;41468;48.838;9.330;2023-08-31T11:46:45;98135.53;;;19.56;53.29
55604;BME280;41468;48.838;9.330;2023-08-31T11:49:15;98137.50;;;19.55;56.21
55604;BME280;41468;48.838;9.330;2023-08-31T11:51:44;98138.88;;;19.63;54.43
55604;BME280;41468;48.838;9.330;2023-08-31T11:54:11;98128.06;;;19.53;54.53
55604;BME280;41468;48.838;9.330;2023-08-31T11:56:45;98125.75;;;19.51;55.02
55604;BME280;41468;48.838;9.330;2023-08-31T11:59:17;98126.78;;;19.41;54.46
55604;BME280;41468;48.838;9.330;2023-08-31T12:01:46;98133.06;;;19.78;53.34
55604;BME280;41468;48.838;9.330;2023-08-31T12:04:16;98127.56;;;20.07;51.67
55604;BME280;41468;48.838;9.330;2023-08-31T12:06:46;98119.22;;;20.23;50.02
55604;BME280;41468;48.838;9.330;2023-08-31T12:09:17;98122.31;;;20.25;54.69
55604;BME280;41468;48.838;9.330;2023-08-31T12:11:52;98124.44;;;20.05;52.38
55604;BME280;41468;48.838;9.330;2023-08-31T12:14:24;98126.63;;;19.81;51.11
55604;BME280;41468;48.838;9.330;2023-08-31T12:16:53;98135.88;;;19.74;52.46
55604;BME280;41468;48.838;9.330;2023-08-31T12:19:30;98128.03;;;19.73;55.81
55604;BME280;41468;48.838;9.330;2023-08-31T12:21:57;98126.88;;;19.54;55.23
55604;BME280;41468;48.838;9.330;2023-08-31T12:24:25;98124.19;;;19.50;53.64
55604;BME280;41468;48.838;9.330;2023-08-31T12:26:52;98124.97;;;19.51;56.32
55604;BME280;41468;48.838;9.330;2023-08-31T12:29:33;98131.44;;;19.44;57.34
55604;BME280;41468;48.838;9.330;2023-08-31T12:32:00;98117.50;;;19.31;55.70
55604;BME280;41468;48.838;9.330;2023-08-31T12:34:27;98122.88;;;19.38;54.87
55604;BME280;41468;48.838;9.330;2023-08-31T12:36:53;98120.09;;;19.38;57.35
55604;BME280;41468;48.838;9.330;2023-08-31T12:39:20;98116.31;;;19.49;58.30
55604;BME280;41468;48.838;9.330;2023-08-31T12:41:47;98109.66;;;19.79;54.83
55604;BME280;41468;48.838;9.330;2023-08-31T12:44:14;98110.84;;;20.40;49.62
55604;BME280;41468;48.838;9.330;2023-08-31T12:46:41;98101.78;;;20.94;48.60
55604;BME280;41468;48.838;9.330;2023-08-31T12:49:08;98102.81;;;21.38;47.90
55604;BME280;41468;48.838;9.330;2023-08-31T12:51:35;98107.56;;;21.76;49.50
55604;BME280;41468;48.838;9.330;2023-08-31T12:54:03;98103.25;;;21.97;48.23
55604;BME280;41468;48.838;9.330;2023-08-31T12:56:30;98099.34;;;22.08;47.87
55604;BME280;41468;48.838;9.330;2023-08-31T12:58:56;98102.34;;;21.66;48.07
55604;BME280;41468;48.838;9.330;2023-08-31T13:01:23;98102.25;;;21.56;51.73
55604;BME280;41468;48.838;9.330;2023-08-31T13:03:52;98109.00;;;21.30;51.38
55604;BME280;41468;48.838;9.330;2023-08-31T13:06:19;98109.75;;;20.92;51.25
55604;BME280;41468;48.838;9.330;2023-08-31T13:08:46;98110.84;;;20.69;51.97
55604;BME280;41468;48.838;9.330;2023-08-31T13:11:12;98115.44;;;20.30;53.43
55604;BME280;41468;48.838;9.330;2023-08-31T13:13:40;98122.50;;;20.18;55.10